Time;durP1;ratioP1;P1;durP2;ratioP2;P2;SDS_P1;SDS_P2;PMS_P1;PMS_P2;Temp;Humidity;BMP_temperature;BMP_pressure;BME280_temperature;BME280_humidity;BME280_pressure;Samples;Min_cycle;Max_cycle;Signal;HPM_P1;HPM_P2
2022/10/19 00:00:08;;;;;;;;;;;11.00;95.00;;;;;;5067674;28;19920;-78
2022/10/19 00:02:37;;;;;;;;;;;10.90;95.00;;;;;;5068850;28;19916;-78
2022/10/19 00:05:02;;;;;;;;;;;10.90;95.00;;;;;;5066215;28;19912;-78
2022/10/19 00:07:28;;;;;;;;;;;10.80;95.10;;;;;;5068890;28;19934;-78
2022/10/19 00:09:53;;;;;;;;;;;10.80;95.20;;;;;;5067414;28;19904;-78
2022/10/19 00:12:18;;;;;;;;;;;10.80;95.40;;;;;;5067677;28;19925;-78
2022/10/19 00:14:44;;;;;;;;;;;10.80;95.50;;;;;;5068544;28;19948;-78
2022/10/19 00:17:09;;;;;;;;;;;10.80;95.60;;;;;;5069803;28;19916;-78
2022/10/19 00:19:35;;;;;;;;;;;10.80;95.50;;;;;;5069629;28;20022;-78
2022/10/19 00:22:00;;;;;;;;;;;10.80;95.70;;;;;;5067791;28;19904;-78
2022/10/19 00:24:25;;;;;;;;;;;10.70;95.70;;;;;;5068889;28;19917;-78
2022/10/19 00:26:51;;;;;;;;;;;10.70;95.80;;;;;;5069010;28;20006;-78
2022/10/19 00:29:16;;;;;;;;;;;10.70;95.80;;;;;;5070274;28;19980;-78
2022/10/19 00:31:42;;;;;;;;;;;10.80;95.90;;;;;;5063643;28;19923;-78
2022/10/19 00:34:07;;;;;;;;;;;10.80;95.80;;;;;;5068743;28;19915;-79
2022/10/19 00:36:34;;;;;;;;;;;10.80;95.90;;;;;;5069962;28;19916;-78
2022/10/19 00:39:01;;;;;;;;;;;10.80;96.00;;;;;;5049898;28;20284;-78
2022/10/19 00:41:28;;;;;;;;;;;10.80;96.00;;;;;;5068967;28;19912;-78
2022/10/19 00:44:01;;;;;;;;;;;10.80;96.00;;;;;;5067208;28;19913;-78
2022/10/19 00:46:27;;;;;;;;;;;10.90;96.00;;;;;;5066765;28;19922;-78
2022/10/19 00:48:56;;;;;;;;;;;10.80;95.90;;;;;;5067873;28;19981;-78
2022/10/19 00:51:22;;;;;;;;;;;10.80;96.00;;;;;;5067795;28;19934;-78
2022/10/19 00:53:48;;;;;;;;;;;10.80;96.00;;;;;;5069196;28;19958;-79
2022/10/19 00:56:14;;;;;;;;;;;10.80;96.00;;;;;;5067440;28;19947;-78
2022/10/19 00:58:40;;;;;;;;;;;10.80;96.00;;;;;;5069843;28;19995;-78
2022/10/19 01:01:07;;;;;;;;;;;10.80;96.20;;;;;;5065682;28;20066;-78
2022/10/19 01:03:33;;;;;;;;;;;10.90;96.20;;;;;;5068462;28;19959;-78
2022/10/19 01:05:59;;;;;;;;;;;10.80;96.10;;;;;;5062310;28;19904;-78
2022/10/19 01:08:24;;;;;;;;;;;10.80;96.30;;;;;;5067528;28;19916;-77
2022/10/19 01:10:58;;;;;;;;;;;10.80;96.20;;;;;;5068232;28;20446;-78
2022/10/19 01:13:30;;;;;;;;;;;10.80;96.30;;;;;;5067838;28;20248;-78
2022/10/19 01:15:55;;;;;;;;;;;10.80;96.30;;;;;;5068796;28;19904;-79
2022/10/19 01:18:27;;;;;;;;;;;10.80;96.30;;;;;;5068742;28;19908;-78
2022/10/19 01:21:08;;;;;;;;;;;10.80;96.40;;;;;;5065125;28;19908;-78
2022/10/19 01:23:59;;;;;;;;;;;10.80;96.30;;;;;;5068740;28;19920;-78
2022/10/19 01:26:44;;;;;;;;;;;10.80;96.40;;;;;;5065003;28;19904;-77
2022/10/19 01:29:15;;;;;;;;;;;10.80;96.30;;;;;;5057349;28;19999;-77
2022/10/19 01:32:01;;;;;;;;;;;10.80;96.30;;;;;;5062661;28;19908;-78
2022/10/19 01:34:39;;;;;;;;;;;10.80;96.40;;;;;;5061362;28;19912;-78
2022/10/19 01:37:11;;;;;;;;;;;10.80;96.60;;;;;;5061025;28;19935;-77
2022/10/19 01:39:42;;;;;;;;;;;10.80;96.60;;;;;;5067221;28;19905;-78
2022/10/19 01:42:13;;;;;;;;;;;10.80;96.40;;;;;;5063133;28;19996;-78
2022/10/19 01:44:41;;;;;;;;;;;10.80;96.50;;;;;;5066014;28;20236;-78
2022/10/19 01:47:27;;;;;;;;;;;10.80;96.60;;;;;;5069267;28;19908;-78
2022/10/19 01:49:55;;;;;;;;;;;10.80;96.50;;;;;;5068684;28;20023;-79
2022/10/19 01:52:21;;;;;;;;;;;10.80;96.60;;;;;;5066652;28;19992;-79
2022/10/19 01:54:49;;;;;;;;;;;10.70;96.70;;;;;;5064096;28;20248;-79
2022/10/19 01:57:18;;;;;;;;;;;10.70;96.70;;;;;;5065089;28;19905;-78
2022/10/19 01:59:44;;;;;;;;;;;10.70;96.80;;;;;;5066593;28;19916;-77
2022/10/19 02:02:11;;;;;;;;;;;10.70;96.80;;;;;;5065028;28;19917;-76
2022/10/19 02:04:37;;;;;;;;;;;10.60;96.80;;;;;;5065434;28;20025;-77
2022/10/19 02:07:03;;;;;;;;;;;10.70;96.90;;;;;;5065066;28;19912;-79
2022/10/19 02:09:29;;;;;;;;;;;10.60;96.90;;;;;;5065786;28;19909;-78
2022/10/19 02:11:56;;;;;;;;;;;10.60;96.90;;;;;;5066378;28;19923;-79
2022/10/19 02:14:24;;;;;;;;;;;10.70;97.10;;;;;;5067432;28;19953;-79
2022/10/19 02:16:56;;;;;;;;;;;10.70;97.00;;;;;;5064743;28;19904;-79
2022/10/19 02:19:22;;;;;;;;;;;10.70;97.00;;;;;;5066899;28;20011;-79
2022/10/19 02:21:47;;;;;;;;;;;10.70;97.00;;;;;;5066961;28;20002;-77
2022/10/19 02:24:13;;;;;;;;;;;10.70;97.00;;;;;;5066646;28;19924;-77
2022/10/19 02:26:39;;;;;;;;;;;10.70;97.00;;;;;;5065145;28;19966;-77
2022/10/19 02:29:04;;;;;;;;;;;10.70;97.00;;;;;;5065076;28;19943;-79
2022/10/19 02:31:29;;;;;;;;;;;10.60;96.90;;;;;;5064140;28;19977;-79
2022/10/19 02:33:55;;;;;;;;;;;10.70;96.90;;;;;;5069003;28;19958;-79
2022/10/19 02:36:20;;;;;;;;;;;10.70;96.60;;;;;;5066680;28;19998;-77
2022/10/19 02:38:46;;;;;;;;;;;10.70;96.50;;;;;;5050735;28;19972;-77
2022/10/19 02:41:23;;;;;;;;;;;10.60;96.20;;;;;;5065760;28;19913;-77
2022/10/19 02:43:50;;;;;;;;;;;10.60;95.90;;;;;;5075863;28;19923;-77
2022/10/19 02:46:25;;;;;;;;;;;10.60;95.60;;;;;;5075609;28;19908;-77
2022/10/19 02:48:50;;;;;;;;;;;10.70;95.60;;;;;;5064828;28;20351;-77
2022/10/19 02:51:25;;;;;;;;;;;10.60;95.50;;;;;;5071234;28;20075;-78
2022/10/19 02:53:51;;;;;;;;;;;10.60;95.40;;;;;;5062035;28;19904;-80
2022/10/19 02:56:16;;;;;;;;;;;10.70;95.40;;;;;;5064179;28;20339;-78
2022/10/19 02:58:41;;;;;;;;;;;10.70;95.30;;;;;;5066575;28;19916;-77
2022/10/19 03:01:07;;;;;;;;;;;10.60;95.30;;;;;;5049686;28;19978;-78
2022/10/19 03:03:32;;;;;;;;;;;10.60;95.40;;;;;;5068453;28;19905;-78
2022/10/19 03:05:57;;;;;;;;;;;10.60;95.40;;;;;;5063430;28;20232;-78
2022/10/19 03:08:23;;;;;;;;;;;10.60;95.50;;;;;;5071429;28;19900;-78
2022/10/19 03:10:48;;;;;;;;;;;10.60;95.30;;;;;;5059982;28;19976;-78
2022/10/19 03:13:14;;;;;;;;;;;10.60;95.30;;;;;;5069259;28;19920;-78
2022/10/19 03:15:39;;;;;;;;;;;10.60;95.30;;;;;;5072885;28;19912;-78
2022/10/19 03:18:04;;;;;;;;;;;10.60;95.30;;;;;;5071250;28;19941;-78
2022/10/19 03:20:30;;;;;;;;;;;10.60;95.00;;;;;;5071889;28;20315;-77
2022/10/19 03:22:55;;;;;;;;;;;10.60;94.90;;;;;;5067763;28;19956;-78
2022/10/19 03:25:21;;;;;;;;;;;10.60;94.20;;;;;;5065919;28;19917;-78
2022/10/19 03:27:46;;;;;;;;;;;10.60;93.90;;;;;;5072147;28;19912;-78
2022/10/19 03:30:11;;;;;;;;;;;10.60;93.40;;;;;;5072590;28;19939;-78
2022/10/19 03:32:37;;;;;;;;;;;10.60;93.30;;;;;;5071872;28;19904;-78
2022/10/19 03:35:02;;;;;;;;;;;10.60;92.90;;;;;;5081059;28;20308;-78
2022/10/19 03:37:28;;;;;;;;;;;10.60;92.70;;;;;;5073642;28;19908;-78
2022/10/19 03:39:53;;;;;;;;;;;10.60;92.10;;;;;;5066733;28;20446;-78
2022/10/19 03:42:19;;;;;;;;;;;10.60;91.70;;;;;;5075707;28;19915;-77
2022/10/19 03:44:44;;;;;;;;;;;10.60;91.30;;;;;;5083794;28;20260;-78
2022/10/19 03:47:09;;;;;;;;;;;10.60;90.90;;;;;;5081717;28;19970;-77
2022/10/19 03:49:35;;;;;;;;;;;10.60;90.50;;;;;;5075653;28;19904;-77
2022/10/19 03:52:00;;;;;;;;;;;10.70;89.30;;;;;;5074588;28;20083;-77
2022/10/19 03:54:26;;;;;;;;;;;10.70;88.20;;;;;;5069240;28;19938;-78
2022/10/19 03:56:51;;;;;;;;;;;10.70;87.60;;;;;;5075113;28;19973;-78
2022/10/19 03:59:16;;;;;;;;;;;10.80;87.50;;;;;;5071636;28;20378;-77
2022/10/19 04:01:43;;;;;;;;;;;10.70;87.40;;;;;;5058246;28;19999;-77
2022/10/19 04:04:10;;;;;;;;;;;10.70;87.40;;;;;;5082637;28;20632;-78
2022/10/19 04:06:37;;;;;;;;;;;10.80;87.60;;;;;;5074397;28;19904;-77
2022/10/19 04:09:03;;;;;;;;;;;10.70;87.70;;;;;;5071817;28;19909;-77
2022/10/19 04:11:28;;;;;;;;;;;10.80;87.10;;;;;;5069666;28;19939;-77
2022/10/19 04:13:55;;;;;;;;;;;10.70;86.80;;;;;;5068216;28;19904;-78
2022/10/19 04:16:21;;;;;;;;;;;10.70;86.90;;;;;;5067114;28;20435;-77
2022/10/19 04:18:46;;;;;;;;;;;10.70;86.80;;;;;;5071184;28;19911;-77
2022/10/19 04:21:20;;;;;;;;;;;10.70;87.00;;;;;;5069892;28;20015;-77
2022/10/19 04:23:45;;;;;;;;;;;10.70;87.10;;;;;;5081599;28;20218;-78
2022/10/19 04:26:10;;;;;;;;;;;10.70;86.90;;;;;;5064762;28;19915;-78
2022/10/19 04:28:36;;;;;;;;;;;10.70;86.70;;;;;;5069506;28;19915;-67
2022/10/19 04:31:02;;;;;;;;;;;10.70;86.70;;;;;;5074038;28;20381;-70
2022/10/19 04:33:27;;;;;;;;;;;10.70;87.00;;;;;;5068893;28;20015;-66
2022/10/19 04:35:57;;;;;;;;;;;10.60;86.40;;;;;;5075071;28;19961;-66
2022/10/19 04:38:22;;;;;;;;;;;10.70;86.40;;;;;;5064105;28;19963;-66
2022/10/19 04:40:47;;;;;;;;;;;10.70;86.80;;;;;;5071056;28;19966;-66
2022/10/19 04:43:13;;;;;;;;;;;10.70;86.30;;;;;;5080127;28;19904;-66
2022/10/19 04:45:38;;;;;;;;;;;10.70;85.80;;;;;;5070492;28;19913;-65
2022/10/19 04:48:04;;;;;;;;;;;10.80;85.70;;;;;;5066522;28;19931;-66
2022/10/19 04:50:29;;;;;;;;;;;10.80;86.10;;;;;;5071256;28;19999;-66
2022/10/19 04:52:55;;;;;;;;;;;10.80;86.60;;;;;;5066561;28;19904;-66
2022/10/19 04:55:20;;;;;;;;;;;10.70;86.70;;;;;;5074690;28;19911;-66
2022/10/19 04:57:46;;;;;;;;;;;10.70;87.60;;;;;;5076153;28;19986;-68
2022/10/19 05:00:11;;;;;;;;;;;10.70;87.90;;;;;;5068658;28;20003;-67
2022/10/19 05:02:41;;;;;;;;;;;10.60;88.30;;;;;;5079921;28;20014;-66
2022/10/19 05:05:06;;;;;;;;;;;10.60;88.50;;;;;;5065024;28;20058;-66
2022/10/19 05:07:32;;;;;;;;;;;10.60;88.90;;;;;;5067227;28;20027;-69
2022/10/19 05:09:57;;;;;;;;;;;10.50;88.90;;;;;;5062760;28;20339;-66
2022/10/19 05:12:22;;;;;;;;;;;10.50;89.00;;;;;;5069976;28;19922;-66
2022/10/19 05:14:48;;;;;;;;;;;10.50;89.30;;;;;;5069324;28;19973;-65
2022/10/19 05:17:13;;;;;;;;;;;10.50;89.40;;;;;;5067605;28;19972;-66
2022/10/19 05:19:39;;;;;;;;;;;10.50;89.70;;;;;;5075700;28;19995;-66
2022/10/19 05:22:04;;;;;;;;;;;10.40;89.40;;;;;;5067070;28;20251;-66
2022/10/19 05:24:31;;;;;;;;;;;10.40;89.30;;;;;;5072609;28;19917;-66
2022/10/19 05:26:56;;;;;;;;;;;10.40;89.20;;;;;;5069292;28;20201;-65
2022/10/19 05:29:23;;;;;;;;;;;10.40;89.60;;;;;;5075775;28;19905;-66
2022/10/19 05:31:48;;;;;;;;;;;10.30;89.40;;;;;;5059864;28;19900;-66
2022/10/19 05:34:14;;;;;;;;;;;10.30;89.60;;;;;;5070100;28;19914;-66
2022/10/19 05:36:39;;;;;;;;;;;10.30;90.00;;;;;;5080362;28;19908;-66
2022/10/19 05:39:06;;;;;;;;;;;10.30;89.60;;;;;;5065837;28;19920;-66
2022/10/19 05:41:32;;;;;;;;;;;10.40;89.80;;;;;;5075595;28;19908;-69
2022/10/19 05:43:58;;;;;;;;;;;10.30;89.70;;;;;;5075749;28;19922;-67
2022/10/19 05:46:25;;;;;;;;;;;10.30;89.60;;;;;;5079219;28;19959;-66
2022/10/19 05:48:50;;;;;;;;;;;10.30;89.80;;;;;;5080656;28;19908;-66
2022/10/19 05:51:17;;;;;;;;;;;10.40;89.80;;;;;;5067992;28;20275;-65
2022/10/19 05:53:43;;;;;;;;;;;10.40;89.00;;;;;;5075799;28;19908;-66
2022/10/19 05:56:11;;;;;;;;;;;10.40;89.30;;;;;;5058375;28;20331;-66
2022/10/19 05:58:36;;;;;;;;;;;10.40;89.20;;;;;;5067051;28;19939;-66
2022/10/19 06:01:02;;;;;;;;;;;10.50;89.40;;;;;;5068415;28;19900;-68
2022/10/19 06:03:28;;;;;;;;;;;10.40;89.40;;;;;;5072278;28;20359;-66
2022/10/19 06:05:54;;;;;;;;;;;10.40;89.50;;;;;;5080615;28;19911;-66
2022/10/19 06:08:20;;;;;;;;;;;10.40;89.40;;;;;;5071914;28;19918;-66
2022/10/19 06:10:46;;;;;;;;;;;10.50;89.70;;;;;;5069832;28;19928;-66
2022/10/19 06:13:11;;;;;;;;;;;10.50;89.90;;;;;;5066699;28;19966;-67
2022/10/19 06:15:39;;;;;;;;;;;10.50;90.10;;;;;;5085432;28;19911;-66
2022/10/19 06:18:11;;;;;;;;;;;10.50;90.20;;;;;;5073894;28;19911;-66
2022/10/19 06:20:38;;;;;;;;;;;10.50;90.30;;;;;;5081185;28;19904;-66
2022/10/19 06:23:04;;;;;;;;;;;10.40;90.30;;;;;;5074178;28;19904;-66
2022/10/19 06:25:30;;;;;;;;;;;10.40;90.00;;;;;;5068009;28;20220;-67
2022/10/19 06:27:55;;;;;;;;;;;10.50;90.20;;;;;;5055503;28;19904;-67
2022/10/19 06:30:21;;;;;;;;;;;10.50;90.70;;;;;;5071395;28;19973;-66
2022/10/19 06:32:46;;;;;;;;;;;10.50;90.70;;;;;;5075930;28;19968;-67
2022/10/19 06:35:11;;;;;;;;;;;10.60;90.80;;;;;;5075703;28;19988;-66
2022/10/19 06:37:37;;;;;;;;;;;10.60;91.00;;;;;;5073869;28;20259;-66
2022/10/19 06:40:02;;;;;;;;;;;10.60;90.80;;;;;;5070789;28;20344;-66
2022/10/19 06:42:28;;;;;;;;;;;10.60;90.90;;;;;;5061797;28;19923;-67
2022/10/19 06:44:53;;;;;;;;;;;10.60;90.70;;;;;;5067259;28;19922;-67
2022/10/19 06:47:19;;;;;;;;;;;10.70;90.70;;;;;;5064704;28;19934;-67
2022/10/19 06:49:44;;;;;;;;;;;10.70;90.80;;;;;;5067643;28;19981;-67
2022/10/19 06:52:09;;;;;;;;;;;10.80;90.70;;;;;;5072810;28;19948;-66
2022/10/19 06:54:35;;;;;;;;;;;10.80;90.80;;;;;;5063098;28;19934;-66
2022/10/19 06:57:00;;;;;;;;;;;10.80;90.80;;;;;;5068499;28;19907;-66
2022/10/19 06:59:26;;;;;;;;;;;10.80;90.40;;;;;;5069260;28;19905;-67
2022/10/19 07:01:51;;;;;;;;;;;10.90;90.10;;;;;;5074046;28;19913;-66
2022/10/19 07:04:16;;;;;;;;;;;11.00;89.90;;;;;;5047831;28;20311;-67
2022/10/19 07:06:42;;;;;;;;;;;11.00;89.90;;;;;;5055186;28;19911;-66
2022/10/19 07:09:07;;;;;;;;;;;11.00;89.30;;;;;;5064782;28;20313;-69
2022/10/19 07:11:33;;;;;;;;;;;11.00;89.40;;;;;;5080839;28;19976;-66
2022/10/19 07:13:58;;;;;;;;;;;11.10;89.70;;;;;;5063967;28;19909;-66
2022/10/19 07:16:23;;;;;;;;;;;11.10;89.90;;;;;;5070649;28;19992;-66
2022/10/19 07:18:50;;;;;;;;;;;11.20;90.10;;;;;;5075355;28;19911;-66
2022/10/19 07:21:16;;;;;;;;;;;11.20;89.70;;;;;;5060002;28;19911;-66
2022/10/19 07:23:42;;;;;;;;;;;11.20;89.70;;;;;;5070965;28;19908;-68
2022/10/19 07:26:11;;;;;;;;;;;11.30;89.60;;;;;;5082978;28;20017;-66
2022/10/19 07:28:37;;;;;;;;;;;11.40;89.60;;;;;;5056659;28;20005;-66
2022/10/19 07:31:05;;;;;;;;;;;11.50;89.50;;;;;;5081756;28;19911;-68
2022/10/19 07:33:30;;;;;;;;;;;11.50;89.30;;;;;;5057208;28;19942;-66
2022/10/19 07:35:59;;;;;;;;;;;11.50;88.60;;;;;;5067488;28;19927;-66
2022/10/19 07:38:25;;;;;;;;;;;11.60;88.60;;;;;;5069328;28;19961;-66
2022/10/19 07:40:50;;;;;;;;;;;11.70;88.80;;;;;;5083652;28;19970;-66
2022/10/19 07:43:15;;;;;;;;;;;11.70;88.50;;;;;;5069755;28;19983;-66
2022/10/19 07:45:41;;;;;;;;;;;11.80;88.80;;;;;;5067504;28;19917;-66
2022/10/19 07:48:06;;;;;;;;;;;11.90;89.20;;;;;;5063062;28;19908;-66
2022/10/19 07:50:32;;;;;;;;;;;11.90;88.60;;;;;;5079525;28;19903;-67
2022/10/19 07:52:57;;;;;;;;;;;12.00;88.30;;;;;;5066971;28;19909;-66
2022/10/19 07:55:22;;;;;;;;;;;12.00;87.00;;;;;;5066247;28;19904;-67
2022/10/19 07:57:49;;;;;;;;;;;12.10;86.30;;;;;;5073229;28;20318;-66
2022/10/19 08:00:15;;;;;;;;;;;12.10;85.50;;;;;;5068157;28;19905;-66
2022/10/19 08:02:40;;;;;;;;;;;12.20;85.20;;;;;;5078815;28;20321;-68
2022/10/19 08:05:06;;;;;;;;;;;12.30;86.00;;;;;;5082930;28;19939;-66
2022/10/19 08:07:32;;;;;;;;;;;12.30;84.30;;;;;;5068736;28;19907;-66
2022/10/19 08:09:58;;;;;;;;;;;12.30;82.90;;;;;;5063035;28;19903;-66
2022/10/19 08:12:23;;;;;;;;;;;12.40;81.20;;;;;;5072935;28;19924;-66
2022/10/19 08:14:49;;;;;;;;;;;12.60;81.20;;;;;;5064283;28;20273;-66
2022/10/19 08:17:16;;;;;;;;;;;12.60;80.90;;;;;;5069344;28;19927;-66
2022/10/19 08:19:43;;;;;;;;;;;12.80;81.30;;;;;;5062116;28;19998;-66
2022/10/19 08:22:08;;;;;;;;;;;13.00;81.70;;;;;;5072138;28;19905;-66
2022/10/19 08:24:34;;;;;;;;;;;13.00;78.90;;;;;;5063251;28;19916;-67
2022/10/19 08:27:01;;;;;;;;;;;13.20;79.50;;;;;;5071175;28;19909;-66
2022/10/19 08:29:26;;;;;;;;;;;13.40;77.70;;;;;;5068250;28;19905;-66
2022/10/19 08:31:52;;;;;;;;;;;13.60;77.10;;;;;;5077943;28;19912;-67
2022/10/19 08:34:17;;;;;;;;;;;13.70;77.20;;;;;;5064290;28;19967;-66
2022/10/19 08:36:43;;;;;;;;;;;13.60;76.90;;;;;;5082223;28;19908;-66
2022/10/19 08:39:11;;;;;;;;;;;13.70;77.40;;;;;;5071782;28;19912;-68
2022/10/19 08:41:39;;;;;;;;;;;13.60;74.80;;;;;;5075606;28;19915;-66
2022/10/19 08:44:11;;;;;;;;;;;13.50;75.70;;;;;;5070399;28;20002;-65
2022/10/19 08:46:48;;;;;;;;;;;13.30;75.40;;;;;;5059465;28;19900;-66
2022/10/19 08:49:17;;;;;;;;;;;13.10;76.00;;;;;;5061917;28;20012;-66
2022/10/19 08:51:45;;;;;;;;;;;13.20;78.50;;;;;;5068246;28;19974;-67
2022/10/19 08:54:14;;;;;;;;;;;13.10;77.30;;;;;;5068795;28;19915;-67
2022/10/19 08:56:46;;;;;;;;;;;13.10;77.90;;;;;;5069359;28;20238;-65
2022/10/19 08:59:11;;;;;;;;;;;13.10;78.10;;;;;;5070210;28;19916;-66
2022/10/19 09:01:39;;;;;;;;;;;13.40;78.10;;;;;;5068830;28;19927;-65
2022/10/19 09:04:37;;;;;;;;;;;13.50;77.20;;;;;;5064329;28;20343;-65
2022/10/19 09:07:17;;;;;;;;;;;13.60;76.40;;;;;;5014441;28;20003;-67
2022/10/19 09:09:49;;;;;;;;;;;13.70;77.60;;;;;;5060226;28;20305;-66
2022/10/19 09:12:18;;;;;;;;;;;14.00;78.00;;;;;;5067439;28;19991;-67
2022/10/19 09:14:55;;;;;;;;;;;14.20;76.50;;;;;;5067078;28;19904;-66
2022/10/19 09:17:20;;;;;;;;;;;14.20;77.40;;;;;;5065808;28;19939;-66
2022/10/19 09:19:46;;;;;;;;;;;14.30;76.80;;;;;;5068031;28;19905;-66
2022/10/19 09:22:17;;;;;;;;;;;14.20;74.50;;;;;;5067442;28;19909;-65
2022/10/19 09:24:47;;;;;;;;;;;14.20;77.40;;;;;;5068207;28;20232;-65
2022/10/19 09:27:23;;;;;;;;;;;14.10;77.60;;;;;;5068030;28;19921;-65
2022/10/19 09:29:52;;;;;;;;;;;14.30;78.60;;;;;;5070036;28;19904;-64
2022/10/19 09:32:19;;;;;;;;;;;14.50;76.10;;;;;;5068596;28;19908;-65
2022/10/19 09:34:52;;;;;;;;;;;15.00;75.80;;;;;;5069078;28;20352;-65
2022/10/19 09:37:19;;;;;;;;;;;15.00;73.80;;;;;;5064619;28;19931;-65
2022/10/19 09:39:45;;;;;;;;;;;15.00;71.50;;;;;;5066506;28;19931;-66
2022/10/19 09:42:16;;;;;;;;;;;14.80;74.00;;;;;;5069218;28;20301;-65
2022/10/19 09:44:42;;;;;;;;;;;14.50;75.10;;;;;;5069758;28;20007;-67
2022/10/19 09:47:22;;;;;;;;;;;14.30;76.10;;;;;;5069112;28;19995;-65
2022/10/19 09:49:47;;;;;;;;;;;14.30;78.00;;;;;;5069343;28;20014;-66
2022/10/19 09:52:31;;;;;;;;;;;14.20;77.50;;;;;;5067507;28;19912;-66
2022/10/19 09:55:20;;;;;;;;;;;14.00;78.20;;;;;;5060143;28;20105;-66
2022/10/19 09:57:47;;;;;;;;;;;13.80;78.20;;;;;;5026844;28;19907;-65
2022/10/19 10:00:16;;;;;;;;;;;13.70;79.20;;;;;;5069747;28;20339;-65
2022/10/19 10:02:47;;;;;;;;;;;13.50;78.00;;;;;;5068870;28;19908;-66
2022/10/19 10:05:13;;;;;;;;;;;13.50;76.20;;;;;;5063063;28;20369;-65
2022/10/19 10:07:39;;;;;;;;;;;13.60;76.70;;;;;;5066495;28;19918;-65
2022/10/19 10:10:10;;;;;;;;;;;13.80;75.00;;;;;;5047362;28;19909;-65
2022/10/19 10:12:36;;;;;;;;;;;14.00;75.10;;;;;;5064101;28;19922;-66
2022/10/19 10:15:02;;;;;;;;;;;14.20;76.00;;;;;;5072250;28;20393;-67
2022/10/19 10:17:29;;;;;;;;;;;14.40;75.60;;;;;;5078526;28;20200;-65
2022/10/19 10:19:57;;;;;;;;;;;14.70;76.30;;;;;;5060947;28;20310;-66
2022/10/19 10:22:27;;;;;;;;;;;15.00;76.00;;;;;;5068847;28;19962;-66
2022/10/19 10:24:53;;;;;;;;;;;15.20;74.70;;;;;;5079153;28;19964;-66
2022/10/19 10:27:27;;;;;;;;;;;15.30;74.20;;;;;;5069115;28;19926;-66
2022/10/19 10:29:53;;;;;;;;;;;15.30;71.40;;;;;;5061475;28;19976;-65
2022/10/19 10:32:20;;;;;;;;;;;15.00;73.20;;;;;;5076739;28;19934;-66
2022/10/19 10:34:47;;;;;;;;;;;14.90;72.40;;;;;;5065576;28;19905;-65
2022/10/19 10:37:20;;;;;;;;;;;15.20;74.20;;;;;;5069431;28;19912;-66
2022/10/19 10:39:49;;;;;;;;;;;15.30;73.40;;;;;;5076519;28;19990;-66
2022/10/19 10:42:17;;;;;;;;;;;15.60;71.40;;;;;;5076135;28;20262;-66
2022/10/19 10:44:50;;;;;;;;;;;15.80;69.40;;;;;;5063287;28;20224;-66
2022/10/19 10:47:17;;;;;;;;;;;15.90;69.30;;;;;;5075318;28;19978;-66
2022/10/19 10:49:42;;;;;;;;;;;16.10;69.80;;;;;;5074299;28;19965;-65
2022/10/19 10:52:13;;;;;;;;;;;16.10;69.50;;;;;;5065130;28;19935;-67
2022/10/19 10:54:38;;;;;;;;;;;16.00;68.40;;;;;;5063198;28;19966;-69
2022/10/19 10:57:08;;;;;;;;;;;15.90;69.90;;;;;;5076298;28;20262;-66
2022/10/19 10:59:36;;;;;;;;;;;16.10;69.30;;;;;;5068871;28;19905;-66
2022/10/19 11:02:20;;;;;;;;;;;16.10;68.50;;;;;;5061527;28;20217;-70
2022/10/19 11:04:50;;;;;;;;;;;16.30;67.90;;;;;;5067601;28;19992;-66
2022/10/19 11:07:17;;;;;;;;;;;16.10;65.30;;;;;;5069090;28;20005;-66
2022/10/19 11:09:45;;;;;;;;;;;16.40;65.00;;;;;;5047748;28;19924;-67
2022/10/19 11:12:15;;;;;;;;;;;16.30;64.30;;;;;;5066957;28;20004;-67
2022/10/19 11:14:45;;;;;;;;;;;16.70;65.10;;;;;;5065595;28;19909;-66
2022/10/19 11:17:21;;;;;;;;;;;16.60;65.20;;;;;;5067432;28;20259;-66
2022/10/19 11:19:50;;;;;;;;;;;16.40;62.10;;;;;;5065547;28;19987;-68
2022/10/19 11:22:19;;;;;;;;;;;16.30;65.30;;;;;;5069246;28;19987;-66
2022/10/19 11:30:11;;;;;;;;;;;16.30;65.90;;;;;;5060556;28;19971;-71
2022/10/19 11:32:52;;;;;;;;;;;16.00;66.10;;;;;;5070018;28;20386;-69
2022/10/19 11:35:20;;;;;;;;;;;16.20;70.10;;;;;;5050904;28;19908;-69
2022/10/19 11:37:49;;;;;;;;;;;16.10;68.20;;;;;;5051709;28;19909;-68
2022/10/19 11:40:19;;;;;;;;;;;16.00;67.60;;;;;;5063780;28;19916;-68
2022/10/19 11:43:24;;;;;;;;;;;15.80;68.20;;;;;;5050153;28;19909;-70
2022/10/19 11:45:57;;;;;;;;;;;15.60;71.30;;;;;;5006681;28;19925;-69
2022/10/19 11:48:23;;;;;;;;;;;15.40;70.90;;;;;;4986621;28;20355;-69
2022/10/19 11:50:52;;;;;;;;;;;15.30;71.10;;;;;;5019517;28;19909;-68
2022/10/19 11:53:33;;;;;;;;;;;15.30;72.30;;;;;;5043946;28;19917;-68
2022/10/19 11:56:09;;;;;;;;;;;15.10;72.10;;;;;;5056509;28;19908;-72
2022/10/19 11:58:47;;;;;;;;;;;15.00;72.70;;;;;;5069308;28;20278;-69
2022/10/19 12:01:21;;;;;;;;;;;14.80;74.10;;;;;;5047445;28;20390;-70
2022/10/19 12:03:50;;;;;;;;;;;14.60;73.60;;;;;;5044667;28;19915;-72
2022/10/19 12:06:20;;;;;;;;;;;14.90;74.50;;;;;;5050687;28;19912;-70
2022/10/19 12:08:56;;;;;;;;;;;15.10;74.60;;;;;;5043637;28;19959;-69
2022/10/19 12:11:41;;;;;;;;;;;16.00;70.40;;;;;;5062539;28;19948;-71
2022/10/19 12:14:12;;;;;;;;;;;16.20;69.30;;;;;;5052083;28;19919;-71
2022/10/19 12:16:43;;;;;;;;;;;16.00;65.30;;;;;;5064250;28;20334;-70
2022/10/19 12:19:17;;;;;;;;;;;16.40;67.60;;;;;;5069998;28;19916;-71
2022/10/19 12:21:43;;;;;;;;;;;17.10;67.00;;;;;;5050974;28;20360;-72
2022/10/19 12:24:19;;;;;;;;;;;17.40;64.10;;;;;;5069228;28;19924;-75
2022/10/19 12:26:45;;;;;;;;;;;17.60;60.20;;;;;;5042419;28;19920;-70
2022/10/19 12:29:13;;;;;;;;;;;17.50;60.30;;;;;;5043786;28;19916;-71
2022/10/19 12:31:39;;;;;;;;;;;17.80;62.40;;;;;;5059688;28;19930;-70
2022/10/19 12:34:04;;;;;;;;;;;18.30;60.40;;;;;;5062103;28;20416;-71
2022/10/19 12:36:33;;;;;;;;;;;18.80;59.20;;;;;;5061663;28;19912;-70
2022/10/19 12:38:59;;;;;;;;;;;19.40;58.70;;;;;;5064712;28;19908;-70
2022/10/19 12:41:25;;;;;;;;;;;20.20;56.80;;;;;;5056746;28;19908;-72
2022/10/19 12:44:12;;;;;;;;;;;20.60;54.90;;;;;;5055963;28;20372;-71
2022/10/19 12:46:41;;;;;;;;;;;21.00;51.80;;;;;;5055870;28;20326;-72
2022/10/19 12:49:27;;;;;;;;;;;21.00;53.20;;;;;;5059824;28;19963;-74
2022/10/19 12:52:02;;;;;;;;;;;20.80;52.10;;;;;;5058851;28;19920;-72
2022/10/19 12:54:31;;;;;;;;;;;21.00;51.10;;;;;;5051525;28;20062;-72
2022/10/19 12:56:57;;;;;;;;;;;21.50;52.70;;;;;;5064299;28;19905;-74
2022/10/19 12:59:24;;;;;;;;;;;21.70;51.70;;;;;;5056922;28;19919;-71
2022/10/19 13:01:50;;;;;;;;;;;22.10;52.70;;;;;;5061484;28;19915;-72
2022/10/19 13:04:23;;;;;;;;;;;22.40;50.40;;;;;;5054300;28;19924;-71
2022/10/19 13:06:56;;;;;;;;;;;22.10;49.90;;;;;;5058347;28;19909;-70
2022/10/19 13:09:33;;;;;;;;;;;22.40;49.80;;;;;;5066565;28;19912;-70
2022/10/19 13:12:20;;;;;;;;;;;22.00;50.30;;;;;;5059856;28;19909;-70
2022/10/19 13:15:01;;;;;;;;;;;21.80;49.00;;;;;;5061288;28;20018;-70
2022/10/19 13:17:33;;;;;;;;;;;22.10;49.50;;;;;;5066738;28;19909;-70
2022/10/19 13:20:17;;;;;;;;;;;22.20;50.30;;;;;;5050470;28;19923;-69
2022/10/19 13:22:51;;;;;;;;;;;22.10;47.80;;;;;;5055421;28;19909;-72
2022/10/19 13:25:27;;;;;;;;;;;22.20;47.80;;;;;;5056721;28;20368;-70
2022/10/19 13:27:59;;;;;;;;;;;22.10;48.30;;;;;;5065905;28;19955;-71
2022/10/19 13:30:42;;;;;;;;;;;21.90;45.40;;;;;;5055061;28;19916;-69
2022/10/19 13:33:33;;;;;;;;;;;20.70;47.30;;;;;;5057808;28;20268;-70
2022/10/19 13:35:59;;;;;;;;;;;20.70;49.30;;;;;;5054063;28;19908;-70
2022/10/19 13:38:25;;;;;;;;;;;21.20;48.70;;;;;;5071042;28;19923;-71
2022/10/19 13:40:53;;;;;;;;;;;21.00;45.70;;;;;;5070827;28;19908;-69
2022/10/19 13:43:40;;;;;;;;;;;21.30;49.90;;;;;;5068268;28;20378;-70
2022/10/19 13:46:09;;;;;;;;;;;20.10;50.00;;;;;;5063760;28;20370;-71
2022/10/19 13:48:53;;;;;;;;;;;20.10;52.10;;;;;;5064043;28;19909;-70
2022/10/19 13:51:38;;;;;;;;;;;20.70;51.60;;;;;;5040362;28;19927;-70
2022/10/19 13:54:22;;;;;;;;;;;20.80;48.90;;;;;;5072171;28;19916;-69
2022/10/19 13:57:06;;;;;;;;;;;20.80;49.60;;;;;;5065543;28;19915;-70
2022/10/19 13:59:40;;;;;;;;;;;20.70;48.60;;;;;;5055096;28;19919;-70
2022/10/19 14:02:19;;;;;;;;;;;21.20;51.20;;;;;;5056900;28;19999;-70
2022/10/19 14:05:08;;;;;;;;;;;21.00;50.00;;;;;;5051542;28;20010;-70
2022/10/19 14:07:45;;;;;;;;;;;21.50;50.90;;;;;;5022185;28;20371;-70
2022/10/19 14:10:13;;;;;;;;;;;21.30;49.50;;;;;;5051948;28;20359;-69
2022/10/19 14:12:43;;;;;;;;;;;21.00;49.80;;;;;;5068275;28;19904;-71
2022/10/19 14:15:20;;;;;;;;;;;20.90;50.80;;;;;;5059633;28;19995;-69
2022/10/19 14:17:45;;;;;;;;;;;20.90;50.90;;;;;;5049609;28;19983;-69
2022/10/19 14:20:29;;;;;;;;;;;20.50;50.70;;;;;;5053623;28;20406;-70
2022/10/19 14:22:56;;;;;;;;;;;20.00;51.30;;;;;;5058435;28;19912;-70
2022/10/19 14:25:23;;;;;;;;;;;19.40;53.60;;;;;;5064001;28;20398;-70
2022/10/19 14:28:04;;;;;;;;;;;18.80;54.40;;;;;;5065291;28;20000;-69
2022/10/19 14:30:31;;;;;;;;;;;17.80;54.60;;;;;;5061996;28;20381;-69